NWS Home NWS Lubbock West Texas Mesonet North Sector Latest Conditions as of 0852 PM, Wed Aug 16, 2017

Latest   N   C   S   Daily Sum   3hrΔ   24hrΔ   Soil Data 
Site Map   24hr Precip   72hr Precip   Google Plot


Station Time of Last Temp Dew Pt. RH Wind Direction Wind Speed Wind Gust Max Wind Max Temp Min Temp Max RH Min RH Altimeter 1HR Rain Today's Rain Solar Rad
Aiken 3WSW  08:45 PM 76 70 81% NW55 16 mph 182° @ 0157 AM 88 67 100 39 30.01" 0 0.00 1
Amarillo 15NNW   08:45 PM 78 59 53% NE55 19 mph 313° @ 0924 AM 87 66 100 35 30.02" 0 0.00 1
Amarillo 7SSE  08:45 PM 75 61 63% NE66 22 mph 330° @ 1150 AM 85 67 96 36 30.04" 0 0.00 1
Amarillo 9NNE  08:45 PM 75 67 75% N33 16 mph 332° @ 1006 AM 85 66 100 39 30.01" 0 0.01 1
Amherst 1NE  08:45 PM 75 63 71% NE78 19 mph 340° @ 0115 PM 86 66 100 36 30.03" 0 0.01 0
Bootleg 11WNW  08:45 PM 70 59 66% E88 22 mph 342° @ 0912 AM 83 59 96 29 30.10" 0 0.01 2
Boys Ranch 1WSW  08:45 PM 78 60 54% NE33 23 mph 344° @ 1056 AM 87 64 97 31 30.01" 0 0.00 2
Canadian 6E  08:45 PM 78 63 59% N1011 30 mph 290° @ 1237 AM 89 66 95 39 29.92" 0 0.03 0
Caprock Canyons State Park  08:45 PM 83 63 50% N68 19 mph 197° @ 0152 AM 93 69 97 27 29.95" 0 0.00 1
Childress 2NNE  08:45 PM 83 66 60% S912 21 mph 180° @ 1045 AM 96 72 95 28 29.89" 0 0.00 1
Clarendon 2WSW  08:45 PM 76 68 79% W45 22 mph 161° @ 0100 AM 88 70 94 45 29.96" 0 0.00 1
Claude 12SW  08:45 PM 75 65 70% N56 20 mph 180° @ 0431 AM 85 69 96 42 30.02" 0 0.00 1
Dimmitt 2NE  08:45 PM 75 64 70% NE55 22 mph 203° @ 0450 AM 84 66 98 39 30.05" 0 0.00 2
Dozier 3W  08:45 PM 82 67 59% NW912 18 mph 147° @ 0100 AM 94 69 98 38 29.91" 0 0.00 0
Floydada 2NNE  08:45 PM 75 66 77% NW56 19 mph 188° @ 0430 AM 90 68 100 27 29.99" 0 0.00 0
Friona 2NE  08:45 PM 74 63 72% E67 20 mph 200° @ 0325 AM 84 63 98 37 30.06" 0 0.02 2
Goodlett 3W  08:45 PM 80 63 57% SE1317 35 mph 164° @ 0810 PM 97 72 91 37 29.87" 0 0.00 1
Goodnight  08:45 PM 75 65 71% NW55 19 mph 306° @ 1141 AM 87 68 100 44 30.00" 0 0.00 1
Happy 1E  08:45 PM 76 63 65% NE56 22 mph 208° @ 0109 AM 85 68 97 38 30.04" 0 0.00 1
Hart 3N  08:45 PM 74 65 75% NW44 19 mph 207° @ 0500 AM 85 66 99 41 30.04" 0 0.01 2
Hereford 2NW  08:45 PM 75 55 52% E46 20 mph 214° @ 0340 AM 84 65 96 34 30.05" 0 0.00 2
McLean 1E  08:45 PM 77 63 63% N68 19 mph 285° @ 1100 AM 89 69 98 42 29.95" 0 0.00 1
Memphis 1NE  08:45 PM 84 65 55% NW68 17 mph 148° @ 0120 AM 95 70 97 25 29.90" 0 0.00 1
Muleshoe 2SSW  08:45 PM 73 63 75% E56 23 mph 187° @ 0215 AM 87 64 99 37 30.04" 0 0.00 2
Northfield 1S  08:45 PM 83 64 54% NW79 23 mph 165° @ 0235 AM 96 70 95 26 29.90" 0 0.00 1
Odell 4ENE  08:45 PM 75 71 87% W2227 44 mph 245° @ 0836 PM 94 74 94 51 29.89" 0 0.00 0
Olton 6S  08:45 PM 75 65 72% NE34 19 mph 194° @ 0325 AM 86 68 96 35 30.02" 0 0.00 2
Palo Duro Canyon SP Floor  08:45 PM 79 65 62% S23 19 mph 234° @ 1241 AM 91 70 93 39 29.98" 0 0.00 1
Palo Duro Canyon State Park Rim  08:45 PM 76 60 59% N12 23 mph 195° @ 1204 AM 86 68 94 43 30.03" 0 0.00 1
Pampa 2E  08:45 PM 75 61 63% N44 20 mph 313° @ 1225 PM 86 68 100 38 29.99" 0 0.00 1
Panhandle 1SSW  08:45 PM 75 60 59% N56 20 mph 307° @ 0201 PM 85 64 98 37 30.03" 0 0.00 1
Plainview 1S  08:45 PM 78 62 60% NW44 16 mph 328° @ 0210 PM 87 67 100 40 30.00" 0 0.00 1
Silverton 7ESE  08:45 PM 75 62 65% N78 20 mph 192° @ 0320 AM 91 69 95 26 29.99" 0 0.00 1
Stinnett 1NNW  08:45 PM 79 59 49% N33 26 mph 349° @ 1103 AM 86 65 97 35 30.01" 0 0.00 1
Tulia 2ENE  08:45 PM 77 64 67% N44 23 mph 209° @ 0405 AM 86 68 100 41 30.02" 0 0.00 1
Turkey 2WSW  08:45 PM 81 67 63% NW79 22 mph 186° @ 0150 AM 94 71 99 28 29.93" 0 0.00 1
Umbarger 3NNE  08:45 PM 74 64 71% NE44 23 mph 202° @ 0214 AM 83 66 96 44 30.05" 0 0.00 1
Vigo Park  08:45 PM 76 62 62% N68 21 mph 197° @ 1208 AM 88 68 99 38 30.02" 0 0.00 1

West Texas Mesonet Home   Site Map/Menu  NWS Lubbock Soil Data  Daily Summary Page  24hr Precip  72hr Precip  Google Plot